createdAt,value
2022-09-05T00:02:34.854Z,22.35
2022-09-05T00:05:21.638Z,22.36
2022-09-05T00:08:00.413Z,22.31
2022-09-05T00:11:03.421Z,22.30
2022-09-05T00:13:30.223Z,22.27
2022-09-05T00:16:32.051Z,22.25
2022-09-05T00:23:52.935Z,22.19
2022-09-05T00:24:37.160Z,22.23
2022-09-05T00:25:31.401Z,22.14
2022-09-05T00:28:26.124Z,22.15
2022-09-05T00:31:55.940Z,22.12
2022-09-05T00:34:18.074Z,22.15
2022-09-05T00:36:50.643Z,22.09
2022-09-05T00:39:26.239Z,22.08
2022-09-05T00:41:59.684Z,22.08
2022-09-05T00:44:32.983Z,22.07
2022-09-05T00:47:09.657Z,22.06
2022-09-05T00:49:45.107Z,22.07
2022-09-05T00:52:20.425Z,22.06
2022-09-05T00:55:12.699Z,22.03
2022-09-05T00:57:58.842Z,22.03
2022-09-05T01:00:38.900Z,21.98
2022-09-05T01:03:33.487Z,21.91
2022-09-05T01:06:16.561Z,21.92
2022-09-05T01:09:22.094Z,21.86
2022-09-05T01:12:05.765Z,21.85
2022-09-05T01:14:51.914Z,21.78
2022-09-05T01:17:36.852Z,21.77
2022-09-05T01:20:19.884Z,21.70
2022-09-05T01:23:08.409Z,21.65
2022-09-05T01:25:54.806Z,21.54
2022-09-05T01:29:17.388Z,21.50
2022-09-05T01:31:32.739Z,21.46
2022-09-05T01:34:10.004Z,21.42
2022-09-05T01:37:04.982Z,21.38
2022-09-05T01:40:15.475Z,21.34
2022-09-05T01:42:42.448Z,21.26
2022-09-05T01:45:21.979Z,21.18
2022-09-05T01:48:04.905Z,21.16
2022-09-05T01:50:44.894Z,21.11
2022-09-05T01:53:27.706Z,21.09
2022-09-05T01:56:16.269Z,21.05
2022-09-05T01:58:59.220Z,20.96
2022-09-05T02:01:42.196Z,20.88
2022-09-05T02:04:36.646Z,20.90
2022-09-05T02:07:22.542Z,20.94
2022-09-05T02:10:19.639Z,20.94
2022-09-05T02:12:59.746Z,20.98
2022-09-05T02:15:41.949Z,20.95
2022-09-05T02:18:23.179Z,20.95
2022-09-05T02:20:57.780Z,20.94
2022-09-05T02:23:44.621Z,20.90
2022-09-05T02:26:19.735Z,20.92
2022-09-05T02:28:54.976Z,20.87
2022-09-05T02:31:30.180Z,20.84
2022-09-05T02:34:04.867Z,20.81
2022-09-05T02:36:39.867Z,20.78
2022-09-05T02:45:01.614Z,20.80
2022-09-05T02:45:20.340Z,20.80
2022-09-05T02:45:28.310Z,20.77
2022-09-05T02:48:14.817Z,20.78
2022-09-05T02:57:27.799Z,20.76
2022-09-05T02:57:35.413Z,20.77
2022-09-05T02:57:45.326Z,20.76
2022-09-05T02:59:54.886Z,20.74
2022-09-05T03:02:30.399Z,20.69
2022-09-05T03:05:06.598Z,20.66
2022-09-05T03:08:03.020Z,20.64
2022-09-05T03:11:06.910Z,20.62
2022-09-05T03:14:12.100Z,20.62
2022-09-05T03:17:08.632Z,20.65
2022-09-05T03:20:26.075Z,20.62
2022-09-05T03:23:28.238Z,20.61
2022-09-05T03:26:34.158Z,20.56
2022-09-05T03:29:33.971Z,20.50
2022-09-05T03:32:48.972Z,20.43
2022-09-05T03:35:56.821Z,20.41
2022-09-05T03:38:59.152Z,20.39
2022-09-05T03:41:40.587Z,20.37
2022-09-05T03:44:35.865Z,20.27
2022-09-05T03:47:32.607Z,20.28
2022-09-05T03:53:35.568Z,20.25
2022-09-05T03:57:10.994Z,20.16
2022-09-05T03:57:13.961Z,20.23
2022-09-05T04:00:07.801Z,20.09
2022-09-05T04:08:09.353Z,20.06
2022-09-05T04:08:24.859Z,20.04
2022-09-05T04:08:49.028Z,19.95
2022-09-05T04:11:20.731Z,19.92
2022-09-05T04:13:54.474Z,19.89
2022-09-05T04:16:26.961Z,19.86
2022-09-05T04:19:08.124Z,19.85
2022-09-05T04:21:44.378Z,19.88
2022-09-05T04:24:18.842Z,19.80
2022-09-05T04:27:14.792Z,19.81
2022-09-05T04:29:55.383Z,19.89
2022-09-05T04:32:35.241Z,19.86
2022-09-05T04:35:16.682Z,19.88
2022-09-05T04:37:53.399Z,19.86
2022-09-05T04:40:38.622Z,19.87
2022-09-05T04:43:09.088Z,19.89
2022-09-05T04:45:42.486Z,19.82
2022-09-05T04:48:14.968Z,19.80
2022-09-05T04:51:01.956Z,19.76
2022-09-05T04:53:40.590Z,19.77
2022-09-05T04:56:16.036Z,19.81
2022-09-05T05:00:08.981Z,19.86
2022-09-05T05:06:08.548Z,20.00
2022-09-05T05:06:11.039Z,19.92
2022-09-05T05:07:28.878Z,20.07
2022-09-05T05:10:33.301Z,20.15
2022-09-05T05:17:59.035Z,20.21
2022-09-05T05:18:03.359Z,20.26
2022-09-05T05:18:59.557Z,20.35
2022-09-05T05:21:33.390Z,20.49
2022-09-05T05:24:11.706Z,20.59
2022-09-05T05:26:56.977Z,20.71
2022-09-05T05:29:37.053Z,20.77
2022-09-05T05:32:08.139Z,20.88
2022-09-05T05:34:44.393Z,20.94
2022-09-05T05:37:20.610Z,21.01
2022-09-05T05:39:59.108Z,21.11
2022-09-05T05:42:27.404Z,21.15
2022-09-05T05:44:58.762Z,21.18
2022-09-05T05:47:32.680Z,21.23
2022-09-05T05:50:11.252Z,21.28
2022-09-05T05:53:28.932Z,21.34
2022-09-05T05:56:31.542Z,21.35
2022-09-05T05:59:22.624Z,21.40
2022-09-05T06:02:30.458Z,21.49
2022-09-05T06:05:32.174Z,21.62
2022-09-05T06:10:31.809Z,21.65
2022-09-05T06:14:52.102Z,21.74
2022-09-05T06:15:10.650Z,21.78
2022-09-05T06:18:11.596Z,21.94
2022-09-05T06:22:11.513Z,21.98
2022-09-05T06:24:41.172Z,22.08
2022-09-05T06:27:34.868Z,22.20
2022-09-05T06:30:17.173Z,22.34
2022-09-05T06:33:06.267Z,22.36
2022-09-05T06:35:47.762Z,22.51
2022-09-05T06:38:31.319Z,22.63
2022-09-05T06:41:22.833Z,22.78
2022-09-05T06:44:23.950Z,22.82
2022-09-05T06:47:22.729Z,22.94
2022-09-05T06:50:27.539Z,22.91
2022-09-05T06:53:27.239Z,22.90
2022-09-05T06:56:25.483Z,22.91
2022-09-05T06:59:24.783Z,23.05
2022-09-05T07:02:00.683Z,23.23
2022-09-05T07:05:23.529Z,23.40
2022-09-05T07:07:35.718Z,23.51
2022-09-05T07:10:34.681Z,23.68
2022-09-05T07:13:07.254Z,23.85
2022-09-05T07:15:43.176Z,24.13
2022-09-05T07:18:18.033Z,24.23
2022-09-05T07:21:12.287Z,24.31
2022-09-05T07:24:08.997Z,24.43
2022-09-05T07:26:52.202Z,24.57
2022-09-05T07:29:30.011Z,24.57
2022-09-05T07:32:01.831Z,24.61
2022-09-05T07:34:31.677Z,24.72
2022-09-05T07:37:15.115Z,24.87
2022-09-05T07:39:50.867Z,25.09
2022-09-05T07:42:26.505Z,25.20
2022-09-05T07:44:59.293Z,25.36
2022-09-05T07:47:31.908Z,25.42
2022-09-05T07:50:27.918Z,25.57
2022-09-05T07:56:51.731Z,25.72
2022-09-05T07:57:01.707Z,25.92
2022-09-05T07:58:39.938Z,26.05
2022-09-05T08:01:10.269Z,26.23
2022-09-05T08:03:38.479Z,26.44
2022-09-05T08:06:10.456Z,26.66
2022-09-05T08:09:18.537Z,26.71
2022-09-05T08:11:40.705Z,26.81
2022-09-05T08:14:44.713Z,26.94
2022-09-05T08:17:16.030Z,26.96
2022-09-05T08:20:08.354Z,27.18
2022-09-05T08:22:48.010Z,27.34
2022-09-05T08:25:28.755Z,27.48
2022-09-05T08:28:20.907Z,27.50
2022-09-05T08:30:58.074Z,27.66
2022-09-05T08:33:33.324Z,27.84
2022-09-05T08:36:08.786Z,27.87
2022-09-05T08:38:41.218Z,27.94
2022-09-05T08:41:17.643Z,28.07
2022-09-05T08:46:38.032Z,28.23
2022-09-05T08:46:53.074Z,28.42
2022-09-05T08:49:49.776Z,28.41
2022-09-05T08:52:31.502Z,28.58
2022-09-05T08:55:11.326Z,28.66
2022-09-05T08:58:05.893Z,28.83
2022-09-05T09:00:41.795Z,28.95
2022-09-05T09:03:25.833Z,29.15
2022-09-05T09:06:21.703Z,29.39
2022-09-05T09:09:18.361Z,29.44
2022-09-05T09:11:54.388Z,29.53
2022-09-05T09:14:39.503Z,29.68
2022-09-05T09:17:24.303Z,29.72
2022-09-05T09:20:11.607Z,29.88
2022-09-05T09:22:44.653Z,29.48
2022-09-05T09:25:17.819Z,29.77
2022-09-05T09:28:45.153Z,30.00
2022-09-05T09:30:59.135Z,30.15
2022-09-05T09:33:37.840Z,30.18
2022-09-05T09:36:20.481Z,30.23
2022-09-05T09:39:21.528Z,30.43
2022-09-05T09:42:14.946Z,30.60
2022-09-05T09:45:27.757Z,30.64
2022-09-05T09:48:46.728Z,30.78
2022-09-05T09:51:36.683Z,31.03
2022-09-05T09:54:44.219Z,31.13
2022-09-05T09:58:01.121Z,31.24
2022-09-05T10:00:45.779Z,31.30
2022-09-05T10:09:37.003Z,31.41
2022-09-05T10:10:45.542Z,31.46
2022-09-05T10:10:49.032Z,31.66
2022-09-05T10:13:31.004Z,31.68
2022-09-05T10:16:24.015Z,31.58
2022-09-05T10:19:13.924Z,31.64
2022-09-05T10:25:19.473Z,31.79
2022-09-05T10:28:07.219Z,31.93
2022-09-05T10:33:21.304Z,32.07
2022-09-05T10:35:19.764Z,32.26
2022-09-05T10:36:32.509Z,32.26
2022-09-05T10:39:15.322Z,32.16
2022-09-05T10:41:50.010Z,32.26
2022-09-05T10:44:29.182Z,32.32
2022-09-05T10:47:07.737Z,32.51
2022-09-05T10:49:43.606Z,32.37
2022-09-05T10:52:18.401Z,32.48
2022-09-05T10:55:14.634Z,32.51
2022-09-05T10:57:57.703Z,32.42
2022-09-05T11:02:21.038Z,32.51
2022-09-05T11:03:50.232Z,32.41
2022-09-05T11:06:24.697Z,32.45
2022-09-05T11:09:05.047Z,32.48
2022-09-05T11:11:46.097Z,32.72
2022-09-05T11:14:42.781Z,32.89
2022-09-05T11:17:18.915Z,32.91
2022-09-05T11:19:58.460Z,33.14
2022-09-05T11:22:35.780Z,33.17
2022-09-05T11:25:10.919Z,33.14
2022-09-05T11:27:46.011Z,33.13
2022-09-05T11:30:30.123Z,33.22
2022-09-05T11:39:47.374Z,33.35
2022-09-05T11:39:55.488Z,33.48
2022-09-05T11:40:05.888Z,33.56
2022-09-05T11:42:21.968Z,33.47
2022-09-05T11:45:21.888Z,33.65
2022-09-05T11:48:23.159Z,33.52
2022-09-05T11:51:33.301Z,33.51
2022-09-05T11:54:23.555Z,33.59
2022-09-05T11:57:32.877Z,33.53
2022-09-05T12:00:31.168Z,33.68
2022-09-05T12:03:57.802Z,33.37
2022-09-05T12:06:56.300Z,33.54
2022-09-05T12:09:37.530Z,33.36
2022-09-05T12:12:41.385Z,33.66
2022-09-05T12:15:28.406Z,33.78
2022-09-05T12:18:18.833Z,33.50
2022-09-05T12:21:02.991Z,33.90
2022-09-05T12:24:11.606Z,34.06
2022-09-05T12:27:42.788Z,34.05
2022-09-05T12:29:40.035Z,34.20
2022-09-05T12:33:58.449Z,34.07
2022-09-05T12:36:07.464Z,34.30
2022-09-05T12:40:38.185Z,34.40
2022-09-05T12:41:43.318Z,34.40
2022-09-05T12:44:41.082Z,34.42
2022-09-05T12:47:17.009Z,34.74
2022-09-05T12:50:03.505Z,34.59
2022-09-05T12:52:46.311Z,34.68
2022-09-05T12:55:26.590Z,34.79
2022-09-05T13:01:23.417Z,34.52
2022-09-05T13:03:11.872Z,34.44
2022-09-05T13:04:15.822Z,34.54
2022-09-05T13:06:40.792Z,34.59
2022-09-05T13:09:11.608Z,34.46
2022-09-05T13:14:50.749Z,34.47
2022-09-05T13:15:07.985Z,34.61
2022-09-05T13:17:45.215Z,34.53
2022-09-05T13:20:21.659Z,34.70
2022-09-05T13:22:52.691Z,34.71
2022-09-05T13:25:27.012Z,34.83
2022-09-05T13:28:01.595Z,35.06
2022-09-05T13:33:11.824Z,35.04
2022-09-05T13:38:08.170Z,35.20
2022-09-05T13:38:20.786Z,35.17
2022-09-05T13:39:06.357Z,35.11
2022-09-05T13:41:43.121Z,34.97
2022-09-05T13:44:25.761Z,34.41
2022-09-05T13:47:02.039Z,34.15
2022-09-05T13:49:53.525Z,34.53
2022-09-05T13:52:31.292Z,34.72
2022-09-05T13:55:13.044Z,34.78
2022-09-05T13:57:45.590Z,34.73
2022-09-05T14:00:53.250Z,34.76
2022-09-05T14:03:40.698Z,34.94
2022-09-05T14:06:47.639Z,34.92
2022-09-05T14:09:37.159Z,35.07
2022-09-05T14:12:12.491Z,35.04
2022-09-05T14:17:56.099Z,35.16
2022-09-05T14:20:49.723Z,35.23
2022-09-05T14:23:21.009Z,35.22
2022-09-05T14:25:53.008Z,35.24
2022-09-05T14:28:27.662Z,35.17
2022-09-05T14:36:10.949Z,35.02
2022-09-05T14:37:41.495Z,34.74
2022-09-05T14:37:54.946Z,34.70
2022-09-05T14:40:43.388Z,34.81
2022-09-05T14:43:42.012Z,34.97
2022-09-05T14:46:39.287Z,34.99
2022-09-05T14:49:36.288Z,34.93
2022-09-05T14:52:18.834Z,34.86
2022-09-05T15:02:43.485Z,34.88
2022-09-05T15:02:46.049Z,34.75
2022-09-05T15:06:32.750Z,34.90
2022-09-05T15:12:01.008Z,34.78
2022-09-05T15:12:26.039Z,34.71
2022-09-05T15:14:50.525Z,34.60
2022-09-05T15:17:23.516Z,34.41
2022-09-05T15:20:06.202Z,34.50
2022-09-05T15:22:37.284Z,34.40
2022-09-05T15:25:25.757Z,34.38
2022-09-05T15:27:55.692Z,34.41
2022-09-05T15:30:35.191Z,34.43
2022-09-05T15:33:14.396Z,34.29
2022-09-05T15:35:43.996Z,34.16
2022-09-05T15:38:23.487Z,34.40
2022-09-05T15:41:10.967Z,34.29
2022-09-05T15:43:51.432Z,34.76
2022-09-05T15:46:29.456Z,35.00
2022-09-05T15:48:59.527Z,35.36
2022-09-05T15:51:42.160Z,35.73
2022-09-05T15:54:37.344Z,35.85
2022-09-05T15:57:15.286Z,35.43
2022-09-05T15:59:49.313Z,34.93
2022-09-05T16:02:21.975Z,34.71
2022-09-05T16:10:34.485Z,34.30
2022-09-05T16:10:42.034Z,33.93
2022-09-05T16:11:09.973Z,33.42
2022-09-05T16:13:52.422Z,33.20
2022-09-05T16:23:11.585Z,32.82
2022-09-05T16:23:26.369Z,32.32
2022-09-05T16:23:28.412Z,32.70
2022-09-05T16:25:02.880Z,32.14
2022-09-05T16:27:43.552Z,32.13
2022-09-05T16:30:21.890Z,32.06
2022-09-05T16:32:54.728Z,31.95
2022-09-05T16:35:26.227Z,31.87
2022-09-05T16:38:06.623Z,31.83
2022-09-05T16:40:38.944Z,31.71
2022-09-05T16:43:12.200Z,31.77
2022-09-05T16:45:49.715Z,31.74
2022-09-05T16:48:30.283Z,31.71
2022-09-05T16:51:13.327Z,31.71
2022-09-05T16:53:58.971Z,31.58
2022-09-05T16:56:33.076Z,31.56
2022-09-05T16:59:04.756Z,31.21
2022-09-05T17:01:54.811Z,31.12
2022-09-05T17:05:03.427Z,30.96
2022-09-05T17:07:44.715Z,30.91
2022-09-05T17:10:18.083Z,30.70
2022-09-05T17:12:46.569Z,30.68
2022-09-05T17:15:17.494Z,30.61
2022-09-05T17:18:21.652Z,30.51
2022-09-05T17:20:49.534Z,30.40
2022-09-05T17:29:16.775Z,30.20
2022-09-05T17:29:17.231Z,30.22
2022-09-05T17:30:21.943Z,29.96
2022-09-05T17:32:01.806Z,29.92
2022-09-05T17:34:49.550Z,29.86
2022-09-05T17:37:39.203Z,29.70
2022-09-05T17:40:32.312Z,29.60
2022-09-05T17:43:04.530Z,29.45
2022-09-05T17:45:44.928Z,29.37
2022-09-05T17:48:16.615Z,29.24
2022-09-05T17:50:53.949Z,29.18
2022-09-05T17:53:24.931Z,29.03
2022-09-05T17:56:33.065Z,28.88
2022-09-05T17:59:07.383Z,28.85
2022-09-05T18:01:36.908Z,28.78
2022-09-05T18:04:15.905Z,28.73
2022-09-05T18:06:59.503Z,28.63
2022-09-05T18:13:13.024Z,28.33
2022-09-05T18:16:11.868Z,28.33
2022-09-05T18:19:32.574Z,28.30
2022-09-05T18:21:49.746Z,28.25
2022-09-05T18:24:33.506Z,28.25
2022-09-05T18:28:03.920Z,28.18
2022-09-05T18:30:06.487Z,28.13
2022-09-05T18:32:39.694Z,28.07
2022-09-05T18:35:37.497Z,28.03
2022-09-05T18:38:51.312Z,28.02
2022-09-05T18:41:23.003Z,27.98
2022-09-05T18:44:12.137Z,27.88
2022-09-05T18:46:45.771Z,27.82
2022-09-05T18:50:21.525Z,27.75
2022-09-05T18:52:17.130Z,27.72
2022-09-05T18:56:09.628Z,27.67
2022-09-05T18:57:51.945Z,27.59
2022-09-05T19:00:46.941Z,27.52
2022-09-05T19:03:19.679Z,27.47
2022-09-05T19:06:35.076Z,27.44
2022-09-05T19:08:52.042Z,27.31
2022-09-05T19:11:28.938Z,27.31
2022-09-05T19:14:25.648Z,27.25
2022-09-05T19:16:49.685Z,27.21
2022-09-05T19:19:20.692Z,27.19
2022-09-05T19:22:39.514Z,27.06
2022-09-05T19:25:00.258Z,27.04
2022-09-05T19:33:50.486Z,27.04
2022-09-05T19:37:08.359Z,26.88
2022-09-05T19:37:13.758Z,26.96
2022-09-05T19:37:22.289Z,26.90
2022-09-05T19:43:07.423Z,26.86
2022-09-05T19:47:27.505Z,26.80
2022-09-05T19:47:43.283Z,26.78
2022-09-05T19:48:35.618Z,26.73
2022-09-05T19:51:17.260Z,26.71
2022-09-05T19:53:48.871Z,26.68
2022-09-05T19:56:39.644Z,26.65
2022-09-05T19:59:19.397Z,26.61
2022-09-05T20:01:52.038Z,26.56
2022-09-05T20:04:21.946Z,26.49
2022-09-05T20:06:59.989Z,26.47
2022-09-05T20:09:31.320Z,26.40
2022-09-05T20:12:19.810Z,26.33
2022-09-05T20:14:56.203Z,26.27
2022-09-05T20:17:29.619Z,26.23
2022-09-05T20:20:12.335Z,26.19
2022-09-05T20:23:03.291Z,26.16
2022-09-05T20:25:37.086Z,26.14
2022-09-05T20:28:10.297Z,26.03
2022-09-05T20:30:43.412Z,26.05
2022-09-05T20:33:24.157Z,26.01
2022-09-05T20:42:15.731Z,25.95
2022-09-05T20:43:21.746Z,25.95
2022-09-05T20:43:24.929Z,25.89
2022-09-05T20:45:43.443Z,25.83
2022-09-05T20:53:08.366Z,25.79
2022-09-05T20:54:15.845Z,25.75
2022-09-05T20:54:28.949Z,25.69
2022-09-05T20:56:48.023Z,25.65
2022-09-05T20:59:26.202Z,25.61
2022-09-05T21:02:03.204Z,25.53
2022-09-05T21:04:35.774Z,25.48
2022-09-05T21:07:23.835Z,25.45
2022-09-05T21:09:55.059Z,25.45
2022-09-05T21:12:27.926Z,25.35
2022-09-05T21:15:20.517Z,25.33
2022-09-05T21:17:53.579Z,25.28
2022-09-05T21:20:25.426Z,25.23
2022-09-05T21:22:53.324Z,25.16
2022-09-05T21:25:26.047Z,25.16
2022-09-05T21:28:24.551Z,25.10
2022-09-05T21:31:12.854Z,25.05
2022-09-05T21:33:45.476Z,25.00
2022-09-05T21:36:16.413Z,24.97
2022-09-05T21:38:45.343Z,24.85
2022-09-05T21:41:16.994Z,24.85
2022-09-05T21:47:35.736Z,24.81
2022-09-05T21:47:47.981Z,24.78
2022-09-05T21:49:25.949Z,24.78
2022-09-05T21:51:55.537Z,24.72
2022-09-05T21:59:16.463Z,24.68
2022-09-05T21:59:26.795Z,24.65
2022-09-05T22:00:11.004Z,24.56
2022-09-05T22:02:48.964Z,24.52
2022-09-05T22:05:17.509Z,24.48
2022-09-05T22:07:48.555Z,24.47
2022-09-05T22:10:16.735Z,24.45
2022-09-05T22:12:44.905Z,24.42
2022-09-05T22:15:27.938Z,24.38
2022-09-05T22:18:16.856Z,24.34
2022-09-05T22:20:57.227Z,24.34
2022-09-05T22:23:39.676Z,24.30
2022-09-05T22:26:07.904Z,24.27
2022-09-05T22:28:46.347Z,24.21
2022-09-05T22:31:14.540Z,24.19
2022-09-05T22:33:42.595Z,24.19
2022-09-05T22:36:10.783Z,24.17
2022-09-05T22:38:43.253Z,24.14
2022-09-05T22:41:11.337Z,24.11
2022-09-05T22:43:41.054Z,24.06
2022-09-05T22:46:09.078Z,24.00
2022-09-05T22:48:38.535Z,23.99
2022-09-05T22:51:07.564Z,23.91
2022-09-05T22:53:35.523Z,23.89
2022-09-05T22:56:07.850Z,23.88
2022-09-05T22:58:41.078Z,23.83
2022-09-05T23:01:09.547Z,23.76
2022-09-05T23:03:37.948Z,23.74
2022-09-05T23:06:07.754Z,23.72
2022-09-05T23:08:35.930Z,23.72
2022-09-05T23:11:09.367Z,23.70
2022-09-05T23:13:37.423Z,23.68
2022-09-05T23:16:06.358Z,23.66
2022-09-05T23:18:34.731Z,23.61
2022-09-05T23:21:03.175Z,23.61
2022-09-05T23:23:31.526Z,23.56
2022-09-05T23:26:01.184Z,23.52
2022-09-05T23:28:30.623Z,23.47
2022-09-05T23:31:00.690Z,23.46
2022-09-05T23:33:29.403Z,23.46
2022-09-05T23:36:00.224Z,23.44
2022-09-05T23:38:29.000Z,23.38
2022-09-05T23:41:01.302Z,23.32
2022-09-05T23:43:31.120Z,23.26
2022-09-05T23:45:59.405Z,23.25
2022-09-05T23:48:28.105Z,23.22
2022-09-05T23:50:56.808Z,23.19
2022-09-05T23:53:24.883Z,23.15
2022-09-05T23:55:52.740Z,23.12
2022-09-05T23:58:21.035Z,23.05
